Tara — XUAB3 — position and weather

sailwx.info

Track history (hours):
 
Tides and Currents Weather Stations Pressure Air Temp Water Temp Dewpoint Dewpoint Depression Visibility Wind Speed Wind Dir Waves Ship Positions

Tara

Last reported at 2014-Nov-12 04:05 UTC. Time now 2014-Nov-26 15:11 UTC.
Position N 37°52' E 024°36'.
Warning: this ship's position is 14 days out of date.

Length 82 m; draft 3.6 m.

Type: Ship. MMSI: 515410000.

Date/timePositionNaut miles runAvg speedWind from/ knotsBaromVisibWave heightAir tempDewpointWater temp
2014-Nov-12 04:05N 37°52' E 024°36'510.3
2014-Nov-12 03:33N 37°47' E 024°35'1010.2
2014-Nov-12 02:33N 37°37' E 024°31'1210.1
2014-Nov-12 01:23N 37°28' E 024°21'810.1
2014-Nov-12 00:33N 37°21' E 024°16'1010.4
2014-Nov-11 23:33N 37°11' E 024°12'1010.4
2014-Nov-11 22:33N 37°01' E 024°06'1010.3
2014-Nov-11 21:33N 36°52' E 024°01'1010.2
2014-Nov-11 20:33N 36°43' E 023°55'1010.4
2014-Nov-11 19:33N 36°34' E 023°50'  
Track history (hours):
 
Tides and Currents Weather Stations Pressure Air Temp Water Temp Dewpoint Dewpoint Depression Visibility Wind Speed Wind Dir Waves Ship Positions

Tara

Last reported at 2014-Nov-12 04:05 UTC. Time now 2014-Nov-26 15:11 UTC.
Position N 37°52' E 024°36'.
Warning: this ship's position is 14 days out of date.

Length 82 m; draft 3.6 m.

Type: Ship. MMSI: 515410000.

Date/timePositionNaut miles runAvg speedWind from/ knotsBaromVisibWave heightAir tempDewpointWater temp
2014-Nov-12 04:05N 37°52' E 024°36'510.3
2014-Nov-12 03:33N 37°47' E 024°35'1010.2
2014-Nov-12 02:33N 37°37' E 024°31'1210.1
2014-Nov-12 01:23N 37°28' E 024°21'810.1
2014-Nov-12 00:33N 37°21' E 024°16'1010.4
2014-Nov-11 23:33N 37°11' E 024°12'1010.4
2014-Nov-11 22:33N 37°01' E 024°06'1010.3
2014-Nov-11 21:33N 36°52' E 024°01'1010.2
2014-Nov-11 20:33N 36°43' E 023°55'1010.4
2014-Nov-11 19:33N 36°34' E 023°50'  

Dump ship's entire track history